createdAt,value
2022-08-26T00:01:31.779Z,101105.72
2022-08-26T00:04:18.714Z,101096.63
2022-08-26T00:07:06.106Z,101104.69
2022-08-26T00:09:54.496Z,101096.72
2022-08-26T00:12:42.369Z,101095.09
2022-08-26T00:15:29.708Z,101100.69
2022-08-26T00:18:22.064Z,101097.22
2022-08-26T00:21:11.163Z,101104.59
2022-08-26T00:23:57.546Z,101105.66
2022-08-26T00:26:45.760Z,101098.75
2022-08-26T00:29:37.391Z,101096.34
2022-08-26T00:32:24.079Z,101095.47
2022-08-26T00:35:12.022Z,101096.44
2022-08-26T00:37:59.332Z,101087.72
2022-08-26T00:40:49.809Z,101093.84
2022-08-26T00:43:46.097Z,101090.13
2022-08-26T00:46:40.022Z,101090.97
2022-08-26T00:49:39.744Z,101091.16
2022-08-26T00:52:27.667Z,101088.38
2022-08-26T00:55:20.488Z,101082.72
2022-08-26T00:58:09.851Z,101081.69
2022-08-26T01:00:58.039Z,101080.72
2022-08-26T01:03:47.399Z,101075.06
2022-08-26T01:06:34.647Z,101073.16
2022-08-26T01:09:23.511Z,101067.38
2022-08-26T01:12:09.956Z,101064.69
2022-08-26T01:14:57.795Z,101069.09
2022-08-26T01:17:46.204Z,101078.03
2022-08-26T01:20:39.389Z,101074.47
2022-08-26T01:23:32.415Z,101071.78
2022-08-26T01:26:23.465Z,101074.47
2022-08-26T01:29:17.073Z,101058.97
2022-08-26T01:32:05.924Z,101073.34
2022-08-26T01:34:53.731Z,101068.63
2022-08-26T01:37:41.074Z,101074.78
2022-08-26T01:40:33.072Z,101072.19
2022-08-26T01:43:22.310Z,101071.50
2022-08-26T01:46:09.848Z,101069.88
2022-08-26T01:49:00.719Z,101067.19
2022-08-26T01:51:49.263Z,101070.53
2022-08-26T01:54:36.607Z,101064.13
2022-08-26T01:57:28.805Z,101063.25
2022-08-26T02:00:16.346Z,101061.53
2022-08-26T02:03:21.474Z,101060.88
2022-08-26T02:06:10.386Z,101061.06
2022-08-26T02:08:58.949Z,101060.50
2022-08-26T02:11:45.835Z,101058.78
2022-08-26T02:14:43.671Z,101056.28
2022-08-26T02:17:37.963Z,101057.34
2022-08-26T02:20:26.564Z,101060.13
2022-08-26T02:23:13.467Z,101048.63
2022-08-26T02:26:07.261Z,101044.97
2022-08-26T02:28:58.160Z,101048.72
2022-08-26T02:31:48.680Z,101048.13
2022-08-26T02:34:35.375Z,101045.63
2022-08-26T02:37:23.808Z,101052.06
2022-08-26T02:40:12.781Z,101047.75
2022-08-26T02:43:01.211Z,101045.16
2022-08-26T02:45:48.677Z,101045.16
2022-08-26T02:48:37.899Z,101043.34
2022-08-26T02:51:24.767Z,101044.19
2022-08-26T02:54:12.732Z,101043.44
2022-08-26T02:56:59.607Z,101037.56
2022-08-26T02:59:47.097Z,101049.16
2022-08-26T03:02:33.796Z,101040.94
2022-08-26T03:05:24.050Z,101040.16
2022-08-26T03:08:11.876Z,101050.13
2022-08-26T03:10:58.765Z,101036.03
2022-08-26T03:13:48.249Z,101032.72
2022-08-26T03:16:35.699Z,101024.28
2022-08-26T03:19:23.360Z,101029.19
2022-08-26T03:22:14.651Z,101027.22
2022-08-26T03:25:02.793Z,101029.19
2022-08-26T03:27:49.803Z,101028.59
2022-08-26T03:30:44.688Z,101029.75
2022-08-26T03:33:31.908Z,101023.69
2022-08-26T03:36:18.813Z,101027.25
2022-08-26T03:39:07.499Z,101021.88
2022-08-26T03:41:55.483Z,101024.38
2022-08-26T03:44:42.365Z,101022.56
2022-08-26T03:47:29.210Z,101028.00
2022-08-26T03:50:22.893Z,101029.75
2022-08-26T03:53:13.068Z,101020.84
2022-08-26T03:56:10.921Z,101027.06
2022-08-26T03:58:58.218Z,100999.94
2022-08-26T04:01:45.313Z,101019.19
2022-08-26T04:04:35.706Z,101014.78
2022-08-26T04:07:22.435Z,101021.88
2022-08-26T04:10:11.684Z,101014.88
2022-08-26T04:13:00.734Z,101008.06
2022-08-26T04:15:47.358Z,101011.34
2022-08-26T04:18:36.999Z,101009.63
2022-08-26T04:21:24.440Z,101016.78
2022-08-26T04:24:13.672Z,101016.97
2022-08-26T04:27:02.180Z,101011.44
2022-08-26T04:29:53.560Z,101011.16
2022-08-26T04:32:42.247Z,101007.34
2022-08-26T04:35:29.118Z,101006.97
2022-08-26T04:38:16.814Z,101009.31
2022-08-26T04:41:05.468Z,101009.69
2022-08-26T04:43:52.079Z,101006.06
2022-08-26T04:46:43.974Z,101005.78
2022-08-26T04:49:35.131Z,101012.00
2022-08-26T04:52:21.821Z,101007.50
2022-08-26T04:55:10.006Z,101003.75
2022-08-26T04:57:56.936Z,100997.34
2022-08-26T05:00:44.971Z,101001.38
2022-08-26T05:03:33.012Z,101001.84
2022-08-26T05:06:20.689Z,101003.94
2022-08-26T05:09:08.628Z,101005.63
2022-08-26T05:11:55.209Z,101001.78
2022-08-26T05:14:42.543Z,101002.34
2022-08-26T05:17:29.817Z,101009.94
2022-08-26T05:20:18.708Z,101016.75
2022-08-26T05:23:11.886Z,101015.78
2022-08-26T05:26:01.213Z,101019.50
2022-08-26T05:28:54.953Z,101022.09
2022-08-26T05:31:43.139Z,101029.53
2022-08-26T05:34:30.260Z,101026.06
2022-08-26T05:37:19.635Z,101029.72
2022-08-26T05:40:07.507Z,101025.44
2022-08-26T05:42:55.020Z,101024.06
2022-08-26T05:45:46.104Z,101029.97
2022-08-26T05:48:33.379Z,101026.53
2022-08-26T05:51:25.379Z,101022.63
2022-08-26T05:54:14.473Z,101023.69
2022-08-26T05:57:07.963Z,101024.75
2022-08-26T05:59:54.666Z,101023.78
2022-08-26T06:02:41.453Z,101022.94
2022-08-26T06:05:28.337Z,101023.13
2022-08-26T06:08:16.059Z,101024.44
2022-08-26T06:11:18.247Z,101023.16
2022-08-26T06:14:08.912Z,101017.00
2022-08-26T06:16:56.348Z,101015.00
2022-08-26T06:19:43.543Z,101018.56
2022-08-26T06:22:46.843Z,101017.78
2022-08-26T06:25:39.326Z,101017.47
2022-08-26T06:28:28.279Z,101018.91
2022-08-26T06:31:15.979Z,101010.06
2022-08-26T06:34:06.171Z,101024.38
2022-08-26T06:36:58.517Z,101015.94
2022-08-26T06:39:45.069Z,101018.91
2022-08-26T06:42:33.150Z,101016.81
2022-08-26T06:45:22.108Z,101014.38
2022-08-26T06:48:09.379Z,101021.00
2022-08-26T06:51:04.574Z,101018.53
2022-08-26T06:53:53.400Z,101020.16
2022-08-26T06:56:41.955Z,101017.31
2022-08-26T06:59:31.308Z,101006.66
2022-08-26T07:02:19.616Z,101007.25
2022-08-26T07:05:08.682Z,101007.81
2022-08-26T07:07:58.024Z,101009.06
2022-08-26T07:10:44.819Z,101005.38
2022-08-26T07:13:31.624Z,101007.47
2022-08-26T07:16:19.189Z,100998.00
2022-08-26T07:19:10.762Z,100999.97
2022-08-26T07:21:58.116Z,101003.22
2022-08-26T07:24:44.931Z,101004.44
2022-08-26T07:27:31.689Z,100997.91
2022-08-26T07:30:18.620Z,100994.72
2022-08-26T07:33:05.246Z,100992.06
2022-08-26T07:35:52.950Z,100999.59
2022-08-26T07:38:40.876Z,100987.47
2022-08-26T07:44:21.296Z,100993.84
2022-08-26T07:47:10.191Z,100993.38
2022-08-26T07:50:11.560Z,100990.00
2022-08-26T07:53:02.042Z,100995.28
2022-08-26T07:55:50.329Z,100987.69
2022-08-26T07:58:37.300Z,100985.34
2022-08-26T08:01:26.971Z,100984.97
2022-08-26T08:04:15.585Z,100974.72
2022-08-26T08:07:02.688Z,100975.75
2022-08-26T08:09:51.411Z,100978.63
2022-08-26T08:12:46.421Z,100976.66
2022-08-26T08:15:37.206Z,100976.22
2022-08-26T08:18:25.265Z,100968.69
2022-08-26T08:21:21.557Z,100965.88
2022-08-26T08:24:10.150Z,100964.06
2022-08-26T08:26:58.805Z,100965.06
2022-08-26T08:29:47.603Z,100961.63
2022-08-26T08:32:35.516Z,100967.91
2022-08-26T08:35:23.731Z,100962.47
2022-08-26T08:38:10.302Z,100960.31
2022-08-26T08:40:57.047Z,100951.00
2022-08-26T08:43:47.475Z,100949.53
2022-08-26T08:46:36.251Z,100954.50
2022-08-26T08:49:26.019Z,100946.84
2022-08-26T08:52:28.929Z,100948.34
2022-08-26T08:55:18.312Z,100941.41
2022-08-26T08:58:09.232Z,100933.41
2022-08-26T09:01:03.141Z,100934.91
2022-08-26T09:04:02.865Z,100934.41
2022-08-26T09:06:53.741Z,100930.34
2022-08-26T09:09:45.368Z,100934.38
2022-08-26T09:12:35.337Z,100928.69
2022-08-26T09:15:26.377Z,100929.69
2022-08-26T09:18:30.996Z,100927.22
2022-08-26T09:21:23.796Z,100933.19
2022-08-26T09:24:13.861Z,100935.06
2022-08-26T09:27:00.729Z,100927.44
2022-08-26T09:29:50.263Z,100919.31
2022-08-26T09:32:37.410Z,100919.31
2022-08-26T09:35:28.576Z,100914.22
2022-08-26T09:38:27.850Z,100925.94
2022-08-26T09:41:27.990Z,100926.41
2022-08-26T09:44:18.128Z,100921.06
2022-08-26T09:47:08.889Z,100912.34
2022-08-26T09:50:01.099Z,100912.25
2022-08-26T09:53:09.823Z,100905.44
2022-08-26T09:56:17.250Z,100894.75
2022-08-26T09:59:06.548Z,100898.91
2022-08-26T10:02:18.528Z,100901.03
2022-08-26T10:05:09.915Z,100886.13
2022-08-26T10:08:00.321Z,100887.22
2022-08-26T10:10:47.915Z,100880.97
2022-08-26T10:13:44.321Z,100873.19
2022-08-26T10:16:48.396Z,100869.13
2022-08-26T10:19:55.704Z,100869.28
2022-08-26T10:22:49.372Z,100862.06
2022-08-26T10:25:47.320Z,100843.78
2022-08-26T10:28:40.037Z,100844.69
2022-08-26T10:31:40.179Z,100842.03
2022-08-26T10:34:28.066Z,100834.19
2022-08-26T10:37:19.442Z,100839.38
2022-08-26T10:40:12.380Z,100830.72
2022-08-26T10:43:11.461Z,100826.91
2022-08-26T10:46:04.396Z,100826.44
2022-08-26T10:48:56.480Z,100821.28
2022-08-26T10:51:56.659Z,100825.72
2022-08-26T10:54:47.040Z,100808.88
2022-08-26T10:57:44.683Z,100797.13
2022-08-26T11:00:56.108Z,100800.72
2022-08-26T11:03:58.055Z,100794.72
2022-08-26T11:06:46.223Z,100786.88
2022-08-26T11:09:47.121Z,100782.09
2022-08-26T11:12:55.455Z,100785.09
2022-08-26T11:16:11.626Z,100788.22
2022-08-26T11:18:58.217Z,100778.88
2022-08-26T11:21:52.033Z,100757.00
2022-08-26T11:24:47.997Z,100755.72
2022-08-26T11:28:06.192Z,100742.06
2022-08-26T11:30:57.708Z,100739.06
2022-08-26T11:33:51.622Z,100742.84
2022-08-26T11:36:42.862Z,100724.88
2022-08-26T11:39:36.883Z,100722.63
2022-08-26T11:42:33.305Z,100727.56
2022-08-26T11:45:25.685Z,100729.41
2022-08-26T11:48:19.793Z,100725.84
2022-08-26T11:51:11.542Z,100703.34
2022-08-26T11:54:12.387Z,100723.75
2022-08-26T11:56:59.438Z,100709.22
2022-08-26T11:59:48.636Z,100698.66
2022-08-26T12:02:35.428Z,100699.25
2022-08-26T12:05:31.002Z,100698.44
2022-08-26T12:08:22.777Z,100681.31
2022-08-26T12:11:11.510Z,100670.47
2022-08-26T12:14:00.528Z,100686.78
2022-08-26T12:16:48.190Z,100692.78
2022-08-26T12:19:37.573Z,100700.81
2022-08-26T12:22:27.586Z,100699.63
2022-08-26T12:25:24.941Z,100687.06
2022-08-26T12:28:11.979Z,100684.78
2022-08-26T12:31:01.303Z,100684.34
2022-08-26T12:33:49.850Z,100700.97
2022-08-26T12:39:28.211Z,100740.63
2022-08-26T12:42:43.147Z,100747.03
2022-08-26T12:45:33.007Z,100741.34
2022-08-26T12:48:26.400Z,100749.59
2022-08-26T12:51:23.706Z,100757.47
2022-08-26T12:54:16.083Z,100759.06
2022-08-26T12:57:13.236Z,100746.63
2022-08-26T13:00:30.178Z,100762.44
2022-08-26T13:03:43.389Z,100775.44
2022-08-26T13:06:31.491Z,100782.31
2022-08-26T13:09:32.222Z,100779.13
2022-08-26T13:12:27.525Z,100758.63
2022-08-26T13:15:17.081Z,100763.78
2022-08-26T13:18:05.709Z,100757.31
2022-08-26T13:20:53.016Z,100759.25
2022-08-26T13:23:42.519Z,100760.50
2022-08-26T13:26:30.481Z,100759.03
2022-08-26T13:29:17.718Z,100765.03
2022-08-26T13:32:06.327Z,100766.50
2022-08-26T13:34:55.999Z,100748.97
2022-08-26T13:37:44.716Z,100751.06
2022-08-26T13:40:34.749Z,100750.44
2022-08-26T13:43:24.659Z,100761.09
2022-08-26T13:46:11.594Z,100767.97
2022-08-26T13:48:59.350Z,100764.66
2022-08-26T13:51:47.462Z,100767.84
2022-08-26T13:54:34.130Z,100781.22
2022-08-26T13:57:24.649Z,100793.06
2022-08-26T14:00:12.937Z,100795.25
2022-08-26T14:03:00.608Z,100784.09
2022-08-26T14:05:47.109Z,100785.56
2022-08-26T14:08:37.870Z,100788.63
2022-08-26T14:11:25.101Z,100772.94
2022-08-26T14:14:15.709Z,100775.00
2022-08-26T14:17:02.962Z,100769.75
2022-08-26T14:19:51.419Z,100758.94
2022-08-26T14:22:52.122Z,100756.50
2022-08-26T14:25:49.715Z,100748.53
2022-08-26T14:28:36.634Z,100737.53
2022-08-26T14:31:24.241Z,100723.31
2022-08-26T14:34:13.064Z,100713.28
2022-08-26T14:36:59.910Z,100710.94
2022-08-26T14:39:54.970Z,100702.56
2022-08-26T14:42:47.859Z,100683.91
2022-08-26T14:45:43.720Z,100693.00
2022-08-26T14:48:30.228Z,100703.91
2022-08-26T14:51:17.003Z,100707.38
2022-08-26T14:54:16.310Z,100712.75
2022-08-26T14:57:05.508Z,100705.16
2022-08-26T14:59:53.397Z,100696.44
2022-08-26T15:02:40.307Z,100693.88
2022-08-26T15:05:27.570Z,100717.47
2022-08-26T15:08:14.441Z,100754.66
2022-08-26T15:11:01.215Z,100788.31
2022-08-26T15:13:48.468Z,100791.19
2022-08-26T15:16:36.632Z,100747.38
2022-08-26T15:19:25.340Z,100788.88
2022-08-26T15:22:12.152Z,100776.47
2022-08-26T15:24:59.892Z,100772.72
2022-08-26T15:27:46.490Z,100768.78
2022-08-26T15:30:33.620Z,100770.72
2022-08-26T15:33:22.337Z,100759.09
2022-08-26T15:36:10.101Z,100754.06
2022-08-26T15:38:57.885Z,100751.84
2022-08-26T15:41:44.876Z,100762.50
2022-08-26T15:44:31.801Z,100754.56
2022-08-26T15:47:18.455Z,100742.16
2022-08-26T15:50:08.347Z,100749.69
2022-08-26T15:52:54.940Z,100755.31
2022-08-26T15:55:41.625Z,100770.59
2022-08-26T15:58:29.854Z,100752.22
2022-08-26T16:01:18.115Z,100730.69
2022-08-26T16:04:14.927Z,100703.78
2022-08-26T16:07:03.384Z,100698.84
2022-08-26T16:09:54.081Z,100694.19
2022-08-26T16:12:42.719Z,100708.16
2022-08-26T16:15:29.468Z,100718.03
2022-08-26T16:18:17.601Z,100733.84
2022-08-26T16:21:13.773Z,100744.03
2022-08-26T16:24:03.623Z,100728.25
2022-08-26T16:26:50.618Z,100718.50
2022-08-26T16:29:39.404Z,100716.25
2022-08-26T16:32:29.460Z,100717.44
2022-08-26T16:35:18.041Z,100718.28
2022-08-26T16:38:05.422Z,100701.53
2022-08-26T16:40:53.640Z,100702.00
2022-08-26T16:43:40.499Z,100671.34
2022-08-26T16:46:27.795Z,100669.03
2022-08-26T16:49:14.820Z,100684.84
2022-08-26T16:52:01.294Z,100695.16
2022-08-26T16:54:47.885Z,100700.66
2022-08-26T16:57:37.459Z,100701.19
2022-08-26T17:00:28.219Z,100697.22
2022-08-26T17:03:15.910Z,100736.13
2022-08-26T17:06:02.884Z,100726.06
2022-08-26T17:08:49.814Z,100728.28
2022-08-26T17:11:36.661Z,100701.78
2022-08-26T17:14:24.907Z,100697.91
2022-08-26T17:17:11.464Z,100701.94
2022-08-26T17:19:59.349Z,100702.47
2022-08-26T17:22:49.677Z,100704.19
2022-08-26T17:25:36.751Z,100709.03
2022-08-26T17:28:23.448Z,100709.94
2022-08-26T17:31:12.962Z,100710.38
2022-08-26T17:33:59.716Z,100710.72
2022-08-26T17:36:46.433Z,100701.34
2022-08-26T17:39:33.104Z,100703.81
2022-08-26T17:42:20.160Z,100704.47
2022-08-26T17:45:08.031Z,100703.19
2022-08-26T17:47:57.151Z,100698.91
2022-08-26T17:50:49.417Z,100693.41
2022-08-26T17:53:35.994Z,100689.88
2022-08-26T17:56:25.576Z,100654.31
2022-08-26T17:59:12.186Z,100693.19
2022-08-26T18:01:59.773Z,100681.91
2022-08-26T18:04:48.283Z,100675.00
2022-08-26T18:07:41.358Z,100674.69
2022-08-26T18:10:31.481Z,100672.66
2022-08-26T18:13:18.948Z,100680.50
2022-08-26T18:16:07.914Z,100676.75
2022-08-26T18:18:55.179Z,100694.97
2022-08-26T18:21:43.033Z,100693.19
2022-08-26T18:24:30.517Z,100696.41
2022-08-26T18:27:17.192Z,100698.56
2022-08-26T18:30:05.699Z,100686.13
2022-08-26T18:32:52.876Z,100692.38
2022-08-26T18:35:40.271Z,100691.91
2022-08-26T18:38:30.090Z,100677.34
2022-08-26T18:41:18.259Z,100674.16
2022-08-26T18:44:05.081Z,100679.13
2022-08-26T18:46:52.456Z,100669.88
2022-08-26T18:49:39.121Z,100655.16
2022-08-26T18:52:26.044Z,100655.69
2022-08-26T18:55:14.280Z,100660.00
2022-08-26T18:58:01.034Z,100673.94
2022-08-26T19:00:47.705Z,100671.81
2022-08-26T19:03:35.084Z,100652.16
2022-08-26T19:06:23.441Z,100673.53
2022-08-26T19:09:12.136Z,100679.53
2022-08-26T19:12:03.017Z,100680.09
2022-08-26T19:14:49.745Z,100683.63
2022-08-26T19:17:36.411Z,100681.28
2022-08-26T19:20:23.292Z,100686.66
2022-08-26T19:23:30.268Z,100683.09
2022-08-26T19:26:18.524Z,100689.66
2022-08-26T19:29:07.019Z,100691.06
2022-08-26T19:31:53.918Z,100694.81
2022-08-26T19:34:40.630Z,100692.97
2022-08-26T19:37:27.400Z,100699.44
2022-08-26T19:40:15.855Z,100698.34
2022-08-26T19:43:06.297Z,100694.72
2022-08-26T19:45:54.388Z,100705.66
2022-08-26T19:48:40.862Z,100700.50
2022-08-26T19:51:30.056Z,100699.09
2022-08-26T19:54:17.523Z,100697.59
2022-08-26T19:57:05.062Z,100697.72
2022-08-26T19:59:51.688Z,100695.47
2022-08-26T20:02:40.793Z,100696.31
2022-08-26T20:05:28.265Z,100702.22
2022-08-26T20:08:21.795Z,100706.19
2022-08-26T20:11:16.730Z,100709.19
2022-08-26T20:14:04.433Z,100715.34
2022-08-26T20:16:51.116Z,100723.38
2022-08-26T20:19:57.250Z,100725.41
2022-08-26T20:22:44.218Z,100733.44
2022-08-26T20:25:32.590Z,100721.66
2022-08-26T20:28:21.605Z,100723.38
2022-08-26T20:31:10.711Z,100725.13
2022-08-26T20:33:59.471Z,100727.59
2022-08-26T20:36:49.203Z,100727.47
2022-08-26T20:39:35.837Z,100727.91
2022-08-26T20:42:22.942Z,100738.13
2022-08-26T20:45:10.770Z,100713.91
2022-08-26T20:47:57.391Z,100737.16
2022-08-26T20:50:44.068Z,100743.59
2022-08-26T20:53:32.426Z,100746.38
2022-08-26T20:56:25.047Z,100748.31
2022-08-26T20:59:11.829Z,100759.59
2022-08-26T21:01:58.521Z,100759.28
2022-08-26T21:04:45.331Z,100761.06
2022-08-26T21:07:32.134Z,100762.13
2022-08-26T21:10:20.340Z,100765.25
2022-08-26T21:13:07.213Z,100765.44
2022-08-26T21:15:57.245Z,100768.34
2022-08-26T21:18:44.014Z,100766.53
2022-08-26T21:21:30.761Z,100771.13
2022-08-26T21:24:20.906Z,100777.38
2022-08-26T21:27:09.244Z,100772.31
2022-08-26T21:29:58.515Z,100774.06
2022-08-26T21:32:45.122Z,100782.13
2022-08-26T21:35:31.937Z,100776.19
2022-08-26T21:38:18.729Z,100791.00
2022-08-26T21:41:08.382Z,100792.38
2022-08-26T21:43:59.192Z,100778.44
2022-08-26T21:46:47.151Z,100756.19
2022-08-26T21:49:33.930Z,100746.63
2022-08-26T21:52:24.240Z,100747.06
2022-08-26T21:55:11.575Z,100733.22
2022-08-26T21:57:58.120Z,100725.38
2022-08-26T22:00:52.511Z,100709.28
2022-08-26T22:03:47.515Z,100702.19
2022-08-26T22:06:40.047Z,100690.47
2022-08-26T22:09:30.964Z,100688.88
2022-08-26T22:12:18.382Z,100693.75
2022-08-26T22:15:05.011Z,100701.34
2022-08-26T22:17:52.922Z,100710.22
2022-08-26T22:20:39.744Z,100717.09
2022-08-26T22:23:26.636Z,100718.94
2022-08-26T22:26:16.181Z,100720.88
2022-08-26T22:29:12.237Z,100713.44
2022-08-26T22:31:58.791Z,100719.88
2022-08-26T22:34:48.347Z,100714.31
2022-08-26T22:37:34.976Z,100711.94
2022-08-26T22:40:21.708Z,100708.28
2022-08-26T22:43:08.370Z,100708.25
2022-08-26T22:45:56.738Z,100697.97
2022-08-26T22:48:43.203Z,100693.00
2022-08-26T22:51:31.783Z,100687.34
2022-08-26T22:54:19.373Z,100681.53
2022-08-26T22:57:07.017Z,100652.44
2022-08-26T22:59:53.472Z,100648.25
2022-08-26T23:02:40.654Z,100646.22
2022-08-26T23:05:27.216Z,100650.09
2022-08-26T23:08:15.882Z,100646.22
2022-08-26T23:11:02.613Z,100661.25
2022-08-26T23:13:49.277Z,100655.44
2022-08-26T23:16:37.971Z,100659.28
2022-08-26T23:19:26.203Z,100659.94
2022-08-26T23:22:12.999Z,100655.66
2022-08-26T23:25:02.507Z,100659.72
2022-08-26T23:27:54.764Z,100664.03
2022-08-26T23:30:41.593Z,100665.75
2022-08-26T23:33:48.753Z,100658.69
2022-08-26T23:36:35.053Z,100658.69
2022-08-26T23:39:22.318Z,100664.25
2022-08-26T23:42:10.951Z,100666.94
2022-08-26T23:44:57.366Z,100659.97
2022-08-26T23:47:44.089Z,100659.28
2022-08-26T23:50:46.671Z,100663.09
2022-08-26T23:53:34.158Z,100667.69
2022-08-26T23:56:20.612Z,100659.63
2022-08-26T23:59:09.408Z,100666.72
